Time;durP1;ratioP1;P1;durP2;ratioP2;P2;SDS_P1;SDS_P2;PMS_P1;PMS_P2;Temp;Humidity;BMP_temperature;BMP_pressure;BME280_temperature;BME280_humidity;BME280_pressure;Samples;Min_cycle;Max_cycle;Signal;HPM_P1;HPM_P2
2022/07/20 00:00:26;;;;;;;;;;;23.30;99.90;;;;;;5120109;27;19923;-77
2022/07/20 00:02:52;;;;;;;;;;;23.30;99.90;;;;;;5137765;27;19930;-76
2022/07/20 00:05:17;;;;;;;;;;;23.30;99.90;;;;;;5137678;27;19923;-77
2022/07/20 00:07:43;;;;;;;;;;;23.30;99.90;;;;;;5119980;27;19972;-76
2022/07/20 00:12:52;;;;;;;;;;;23.20;99.90;;;;;;5137558;27;19923;-76
2022/07/20 00:15:18;;;;;;;;;;;23.20;99.90;;;;;;5119661;27;19946;-76
2022/07/20 00:17:44;;;;;;;;;;;23.10;99.90;;;;;;5137228;27;19923;-76
2022/07/20 00:20:10;;;;;;;;;;;23.10;99.90;;;;;;5137404;27;20018;-76
2022/07/20 00:22:35;;;;;;;;;;;23.00;99.90;;;;;;5119986;27;19923;-76
2022/07/20 00:25:01;;;;;;;;;;;23.00;99.90;;;;;;5120237;27;19979;-76
2022/07/20 00:27:27;;;;;;;;;;;22.90;99.90;;;;;;5136906;27;19929;-76
2022/07/20 00:29:52;;;;;;;;;;;22.90;99.90;;;;;;5120189;27;19958;-76
2022/07/20 00:32:18;;;;;;;;;;;22.90;99.90;;;;;;5137351;27;19930;-77
2022/07/20 00:34:44;;;;;;;;;;;22.90;99.90;;;;;;5119721;27;19923;-76
2022/07/20 00:37:09;;;;;;;;;;;22.80;99.90;;;;;;5120013;27;19923;-76
2022/07/20 00:39:35;;;;;;;;;;;22.80;99.90;;;;;;5119735;27;19927;-76
2022/07/20 00:42:00;;;;;;;;;;;22.70;99.90;;;;;;5119970;27;19963;-76
2022/07/20 00:44:26;;;;;;;;;;;22.70;99.90;;;;;;5120110;27;20335;-76
2022/07/20 00:46:53;;;;;;;;;;;22.70;99.90;;;;;;5136545;27;19923;-76
2022/07/20 00:49:18;;;;;;;;;;;22.60;99.90;;;;;;5137105;27;19923;-76
2022/07/20 00:51:44;;;;;;;;;;;22.60;99.90;;;;;;5136835;27;20388;-76
2022/07/20 00:54:10;;;;;;;;;;;22.40;99.90;;;;;;5136890;27;19923;-76
2022/07/20 00:56:35;;;;;;;;;;;22.30;99.90;;;;;;5119662;27;20001;-76
2022/07/20 00:59:02;;;;;;;;;;;22.30;99.90;;;;;;5136945;27;19934;-76
2022/07/20 01:01:28;;;;;;;;;;;22.20;99.90;;;;;;5136908;27;20029;-76
2022/07/20 01:03:53;;;;;;;;;;;22.20;99.90;;;;;;5136648;27;19946;-76
2022/07/20 01:06:19;;;;;;;;;;;22.20;99.90;;;;;;5119602;27;19931;-76
2022/07/20 01:08:48;;;;;;;;;;;22.10;99.90;;;;;;5119562;27;20252;-76
2022/07/20 01:11:14;;;;;;;;;;;22.10;99.90;;;;;;5136747;27;20401;-76
2022/07/20 01:13:39;;;;;;;;;;;22.00;99.90;;;;;;5123376;27;19923;-76
2022/07/20 01:16:05;;;;;;;;;;;22.00;99.90;;;;;;5123899;27;19930;-76
2022/07/20 01:18:31;;;;;;;;;;;22.00;99.90;;;;;;5123823;27;19934;-76
2022/07/20 01:21:01;;;;;;;;;;;21.90;99.90;;;;;;5123533;27;19971;-76
2022/07/20 01:23:27;;;;;;;;;;;21.90;99.90;;;;;;5123599;27;20351;-76
2022/07/20 01:25:52;;;;;;;;;;;21.80;99.90;;;;;;5140386;27;19930;-76
2022/07/20 01:28:18;;;;;;;;;;;21.80;99.90;;;;;;5123602;27;20436;-76
2022/07/20 01:30:43;;;;;;;;;;;21.80;99.90;;;;;;5140441;27;19930;-76
2022/07/20 01:33:09;;;;;;;;;;;21.70;99.90;;;;;;5123511;27;19923;-76
2022/07/20 01:35:35;;;;;;;;;;;21.70;99.90;;;;;;5140552;27;19971;-76
2022/07/20 01:38:00;;;;;;;;;;;21.70;99.90;;;;;;5140384;27;19930;-76
2022/07/20 01:40:26;;;;;;;;;;;21.60;99.90;;;;;;5123007;27;19931;-76
2022/07/20 01:42:51;;;;;;;;;;;21.60;99.90;;;;;;5123115;27;20022;-76
2022/07/20 01:45:18;;;;;;;;;;;21.50;99.90;;;;;;5140446;27;19972;-76
2022/07/20 01:47:43;;;;;;;;;;;21.50;99.90;;;;;;5122358;27;19981;-76
2022/07/20 01:50:09;;;;;;;;;;;21.50;99.90;;;;;;5140282;27;20319;-76
2022/07/20 01:52:35;;;;;;;;;;;21.40;99.90;;;;;;5140317;27;19923;-76
2022/07/20 01:55:00;;;;;;;;;;;21.40;99.90;;;;;;5139699;27;20513;-76
2022/07/20 01:57:26;;;;;;;;;;;21.40;99.90;;;;;;5140210;27;19927;-76
2022/07/20 01:59:51;;;;;;;;;;;21.30;99.90;;;;;;5122516;27;20004;-76
2022/07/20 02:02:17;;;;;;;;;;;21.30;99.90;;;;;;5123030;27;19949;-76
2022/07/20 02:04:43;;;;;;;;;;;21.30;99.90;;;;;;5140057;27;19923;-77
2022/07/20 02:07:08;;;;;;;;;;;21.20;99.90;;;;;;5139434;27;20302;-76
2022/07/20 02:09:34;;;;;;;;;;;21.20;99.90;;;;;;5139941;27;19969;-76
2022/07/20 02:11:59;;;;;;;;;;;21.10;99.90;;;;;;5122578;27;19923;-76
2022/07/20 02:14:25;;;;;;;;;;;21.10;99.90;;;;;;5122290;27;19923;-76
2022/07/20 02:16:50;;;;;;;;;;;21.10;99.90;;;;;;5122535;27;19923;-76
2022/07/20 02:19:16;;;;;;;;;;;21.00;99.90;;;;;;5140063;27;19971;-76
2022/07/20 02:21:41;;;;;;;;;;;21.10;99.90;;;;;;5122592;27;20286;-76
2022/07/20 02:24:07;;;;;;;;;;;21.00;99.90;;;;;;5105139;27;19945;-76
2022/07/20 02:26:33;;;;;;;;;;;21.00;99.90;;;;;;5122300;27;19934;-76
2022/07/20 02:28:58;;;;;;;;;;;21.00;99.90;;;;;;5122221;27;19931;-76
2022/07/20 02:31:24;;;;;;;;;;;20.90;99.90;;;;;;5122053;27;19923;-76
2022/07/20 02:33:50;;;;;;;;;;;20.90;99.90;;;;;;5122139;27;19990;-76
2022/07/20 02:36:16;;;;;;;;;;;21.00;99.90;;;;;;5122299;27;20030;-76
2022/07/20 02:38:42;;;;;;;;;;;21.00;99.90;;;;;;5121933;27;20379;-76
2022/07/20 02:41:07;;;;;;;;;;;20.90;99.90;;;;;;5122034;27;19927;-76
2022/07/20 02:43:33;;;;;;;;;;;21.00;99.90;;;;;;5105249;27;19927;-76
2022/07/20 02:45:58;;;;;;;;;;;21.00;99.90;;;;;;5121826;27;20277;-76
2022/07/20 02:48:24;;;;;;;;;;;21.00;99.90;;;;;;5122023;27;19930;-76
2022/07/20 02:50:50;;;;;;;;;;;21.00;99.90;;;;;;5121767;27;19967;-77
2022/07/20 02:53:15;;;;;;;;;;;21.00;99.90;;;;;;5139215;27;20019;-77
2022/07/20 02:55:41;;;;;;;;;;;21.00;99.90;;;;;;5139076;27;20374;-76
2022/07/20 02:58:08;;;;;;;;;;;21.00;99.90;;;;;;5138779;27;20390;-76
2022/07/20 03:00:34;;;;;;;;;;;21.00;99.90;;;;;;5138958;27;19927;-76
2022/07/20 03:02:59;;;;;;;;;;;21.00;99.90;;;;;;5138432;27;20264;-76
2022/07/20 03:05:26;;;;;;;;;;;20.90;99.90;;;;;;5121778;27;19923;-76
2022/07/20 03:07:51;;;;;;;;;;;21.00;99.90;;;;;;5138288;27;20244;-83
2022/07/20 03:10:17;;;;;;;;;;;20.90;99.90;;;;;;5138786;27;19923;-76
2022/07/20 03:12:42;;;;;;;;;;;20.90;99.90;;;;;;5138763;27;20266;-76
2022/07/20 03:15:08;;;;;;;;;;;20.90;99.90;;;;;;5137759;27;19923;-76
2022/07/20 03:17:44;;;;;;;;;;;20.90;99.90;;;;;;5138805;27;19923;-76
2022/07/20 03:20:11;;;;;;;;;;;20.90;99.90;;;;;;5138032;27;20336;-76
2022/07/20 03:22:36;;;;;;;;;;;20.90;99.90;;;;;;5121644;27;20003;-76
2022/07/20 03:25:02;;;;;;;;;;;20.80;99.90;;;;;;5121113;27;19968;-76
2022/07/20 03:27:27;;;;;;;;;;;20.80;99.90;;;;;;5138220;27;19923;-76
2022/07/20 03:29:53;;;;;;;;;;;20.70;99.90;;;;;;5121159;27;20017;-76
2022/07/20 03:32:19;;;;;;;;;;;20.70;99.90;;;;;;5120961;27;19923;-76
2022/07/20 03:34:44;;;;;;;;;;;20.60;99.90;;;;;;5137853;27;20007;-76
2022/07/20 03:37:10;;;;;;;;;;;20.50;99.90;;;;;;5120854;27;19923;-76
2022/07/20 03:39:35;;;;;;;;;;;20.50;99.90;;;;;;5138192;27;19923;-76
2022/07/20 03:42:01;;;;;;;;;;;20.50;99.90;;;;;;5138006;27;19931;-76
2022/07/20 03:44:26;;;;;;;;;;;20.40;99.90;;;;;;5120637;27;20302;-76
2022/07/20 03:46:52;;;;;;;;;;;20.40;99.90;;;;;;5120616;27;19929;-76
2022/07/20 03:49:17;;;;;;;;;;;20.40;99.90;;;;;;5137831;27;19923;-76
2022/07/20 03:51:43;;;;;;;;;;;20.30;99.90;;;;;;5120833;27;20363;-76
2022/07/20 03:54:08;;;;;;;;;;;20.30;99.90;;;;;;5137408;27;19972;-76
2022/07/20 03:56:39;;;;;;;;;;;20.30;99.90;;;;;;5138040;27;19923;-76
2022/07/20 03:59:06;;;;;;;;;;;20.30;99.90;;;;;;5137338;27;20306;-76
2022/07/20 04:01:31;;;;;;;;;;;20.30;99.90;;;;;;5120643;27;19937;-76
2022/07/20 04:03:57;;;;;;;;;;;20.40;99.90;;;;;;5137420;27;19923;-76
2022/07/20 04:06:22;;;;;;;;;;;20.30;99.90;;;;;;5137277;27;20009;-76
2022/07/20 04:08:48;;;;;;;;;;;20.30;99.90;;;;;;5137674;27;19923;-76
2022/07/20 04:11:13;;;;;;;;;;;20.30;99.90;;;;;;5120121;27;20371;-77
2022/07/20 04:13:39;;;;;;;;;;;20.30;99.90;;;;;;5119980;27;20013;-76
2022/07/20 04:16:05;;;;;;;;;;;20.30;99.90;;;;;;5120374;27;19923;-76
2022/07/20 04:18:31;;;;;;;;;;;20.40;99.90;;;;;;5137460;27;19931;-76
2022/07/20 04:20:57;;;;;;;;;;;20.40;99.90;;;;;;5137104;27;19952;-76
2022/07/20 04:23:22;;;;;;;;;;;20.40;99.90;;;;;;5119934;27;19923;-76
2022/07/20 04:25:48;;;;;;;;;;;20.40;99.90;;;;;;5120242;27;19923;-77
2022/07/20 04:28:14;;;;;;;;;;;20.30;99.90;;;;;;5119946;27;19923;-76
2022/07/20 04:30:39;;;;;;;;;;;20.30;99.90;;;;;;5137294;27;19930;-76
2022/07/20 04:33:05;;;;;;;;;;;20.40;99.90;;;;;;5119816;27;19930;-76
2022/07/20 04:35:30;;;;;;;;;;;20.30;99.90;;;;;;5120061;27;19923;-76
2022/07/20 04:37:56;;;;;;;;;;;20.40;99.90;;;;;;5119970;27;19923;-76
2022/07/20 04:40:21;;;;;;;;;;;20.40;99.90;;;;;;5119758;27;19927;-76
2022/07/20 04:42:47;;;;;;;;;;;20.60;99.90;;;;;;5136909;27;19962;-76
2022/07/20 04:45:12;;;;;;;;;;;20.70;99.90;;;;;;5119700;27;19925;-76
2022/07/20 04:47:38;;;;;;;;;;;20.70;99.90;;;;;;5135818;27;20374;-76
2022/07/20 04:50:04;;;;;;;;;;;20.90;99.90;;;;;;5136894;27;20026;-76
2022/07/20 04:52:29;;;;;;;;;;;20.90;99.90;;;;;;5119331;27;19923;-76
2022/07/20 04:54:55;;;;;;;;;;;21.00;99.90;;;;;;5136916;27;20017;-76
2022/07/20 04:57:20;;;;;;;;;;;21.10;99.90;;;;;;5119665;27;19923;-76
2022/07/20 04:59:46;;;;;;;;;;;21.20;99.90;;;;;;5119811;27;20290;-76
2022/07/20 05:02:11;;;;;;;;;;;21.40;99.90;;;;;;5136584;27;19934;-76
2022/07/20 05:04:37;;;;;;;;;;;21.60;99.90;;;;;;5119746;27;19923;-76
2022/07/20 05:07:03;;;;;;;;;;;21.70;99.90;;;;;;5136434;27;19927;-76
2022/07/20 05:09:28;;;;;;;;;;;21.80;99.90;;;;;;5136561;27;20415;-76
2022/07/20 05:11:54;;;;;;;;;;;21.80;99.90;;;;;;5119674;27;19927;-76
2022/07/20 05:14:19;;;;;;;;;;;22.00;99.90;;;;;;5136091;27;19923;-76
2022/07/20 05:16:45;;;;;;;;;;;22.10;99.90;;;;;;5136438;27;19923;-76
2022/07/20 05:19:11;;;;;;;;;;;22.10;99.90;;;;;;5136505;27;19970;-79
2022/07/20 05:21:37;;;;;;;;;;;22.20;99.90;;;;;;5119596;27;19942;-76
2022/07/20 05:24:03;;;;;;;;;;;22.20;99.90;;;;;;5136687;27;20014;-76
2022/07/20 05:26:28;;;;;;;;;;;22.20;99.90;;;;;;5119113;27;19930;-76
2022/07/20 05:28:54;;;;;;;;;;;22.30;99.90;;;;;;5119559;27;19923;-76
2022/07/20 05:31:19;;;;;;;;;;;22.30;99.90;;;;;;5136393;27;20386;-76
2022/07/20 05:33:45;;;;;;;;;;;22.40;99.90;;;;;;5136638;27;20347;-76
2022/07/20 05:36:11;;;;;;;;;;;22.40;99.90;;;;;;5119146;27;19923;-76
2022/07/20 05:38:37;;;;;;;;;;;22.50;99.90;;;;;;5136386;27;19923;-76
2022/07/20 05:41:02;;;;;;;;;;;22.50;99.90;;;;;;5136444;27;19923;-76
2022/07/20 05:43:28;;;;;;;;;;;22.60;99.90;;;;;;5136292;27;20018;-76
2022/07/20 05:45:53;;;;;;;;;;;22.60;99.90;;;;;;5119216;27;19927;-76
2022/07/20 05:48:19;;;;;;;;;;;22.70;99.90;;;;;;5136326;27;20378;-76
2022/07/20 05:50:45;;;;;;;;;;;22.80;99.90;;;;;;5136412;27;19923;-76
2022/07/20 05:53:11;;;;;;;;;;;22.80;99.90;;;;;;5119257;27;19923;-76
2022/07/20 05:55:37;;;;;;;;;;;22.90;99.90;;;;;;5136187;27;19923;-76
2022/07/20 05:58:03;;;;;;;;;;;22.90;99.90;;;;;;5137357;27;20414;-76
2022/07/20 06:00:29;;;;;;;;;;;23.00;99.90;;;;;;5139978;27;19968;-76
2022/07/20 06:02:55;;;;;;;;;;;23.00;99.90;;;;;;5140176;27;20355;-76
2022/07/20 06:05:20;;;;;;;;;;;23.10;99.90;;;;;;5122746;27;19923;-77
2022/07/20 06:07:46;;;;;;;;;;;23.30;99.90;;;;;;5122633;27;20404;-76
2022/07/20 06:10:12;;;;;;;;;;;23.40;99.90;;;;;;5122796;27;19927;-76
2022/07/20 06:12:37;;;;;;;;;;;23.40;99.90;;;;;;5139697;27;20282;-76
2022/07/20 06:15:03;;;;;;;;;;;23.50;99.90;;;;;;5122370;27;19938;-76
2022/07/20 06:17:36;;;;;;;;;;;23.50;99.90;;;;;;5122401;27;20366;-76
2022/07/20 06:20:04;;;;;;;;;;;23.60;99.90;;;;;;5139847;27;20060;-76
2022/07/20 06:22:30;;;;;;;;;;;23.70;99.90;;;;;;5122433;27;20267;-76
2022/07/20 06:24:55;;;;;;;;;;;23.70;99.90;;;;;;5139699;27;19923;-76
2022/07/20 06:27:21;;;;;;;;;;;23.80;99.90;;;;;;5139162;27;20398;-77
2022/07/20 06:29:47;;;;;;;;;;;23.80;99.90;;;;;;5139703;27;19923;-76
2022/07/20 06:32:12;;;;;;;;;;;23.90;99.90;;;;;;5122449;27;19923;-76
2022/07/20 06:34:38;;;;;;;;;;;24.00;99.90;;;;;;5122141;27;19974;-76
2022/07/20 06:37:03;;;;;;;;;;;24.00;99.90;;;;;;5139471;27;19923;-76
2022/07/20 06:39:29;;;;;;;;;;;24.00;99.90;;;;;;5138834;27;20366;-76
2022/07/20 06:41:55;;;;;;;;;;;24.10;99.90;;;;;;5122171;27;19951;-76
2022/07/20 06:44:20;;;;;;;;;;;24.10;99.90;;;;;;5122150;27;19969;-76
2022/07/20 06:46:46;;;;;;;;;;;24.10;99.90;;;;;;5138887;27;20367;-76
2022/07/20 06:49:11;;;;;;;;;;;24.20;99.90;;;;;;5139152;27;19945;-76
2022/07/20 06:51:37;;;;;;;;;;;24.20;99.90;;;;;;5121950;27;20384;-76
2022/07/20 06:54:03;;;;;;;;;;;24.30;99.90;;;;;;5139148;27;20037;-76
2022/07/20 06:56:29;;;;;;;;;;;24.30;99.90;;;;;;5138890;27;19927;-76
2022/07/20 06:58:54;;;;;;;;;;;24.30;99.90;;;;;;5138667;27;19970;-76
2022/07/20 07:01:20;;;;;;;;;;;24.40;99.90;;;;;;5121751;27;19930;-76
2022/07/20 07:03:46;;;;;;;;;;;24.50;99.90;;;;;;5121287;27;20332;-76
2022/07/20 07:06:11;;;;;;;;;;;24.50;99.90;;;;;;5138743;27;19927;-76
2022/07/20 07:08:37;;;;;;;;;;;24.60;99.90;;;;;;5104221;27;20014;-76
2022/07/20 07:11:02;;;;;;;;;;;24.60;99.90;;;;;;5120936;27;19930;-76
2022/07/20 07:13:28;;;;;;;;;;;24.70;99.90;;;;;;5104234;27;20055;-76
2022/07/20 07:15:54;;;;;;;;;;;24.80;99.90;;;;;;5137931;27;19930;-76
2022/07/20 07:18:20;;;;;;;;;;;24.90;99.90;;;;;;5104474;27;20018;-76
2022/07/20 07:20:45;;;;;;;;;;;24.90;99.90;;;;;;5121364;27;19981;-76
2022/07/20 07:23:11;;;;;;;;;;;25.00;99.90;;;;;;5121398;27;19966;-76
2022/07/20 07:25:36;;;;;;;;;;;25.00;99.90;;;;;;5138300;27;20021;-76
2022/07/20 07:28:02;;;;;;;;;;;25.10;99.90;;;;;;5121331;27;19924;-76
2022/07/20 07:30:27;;;;;;;;;;;25.10;99.90;;;;;;5138551;27;19930;-76
2022/07/20 07:32:53;;;;;;;;;;;25.20;99.90;;;;;;5120944;27;20022;-76
2022/07/20 07:35:19;;;;;;;;;;;25.30;99.90;;;;;;5138392;27;19987;-76
2022/07/20 07:37:45;;;;;;;;;;;25.40;99.90;;;;;;5138031;27;19923;-76
2022/07/20 07:40:11;;;;;;;;;;;25.40;99.90;;;;;;5138127;27;19967;-76
2022/07/20 07:42:37;;;;;;;;;;;25.50;99.90;;;;;;5137870;27;20015;-76
2022/07/20 07:45:06;;;;;;;;;;;25.50;99.90;;;;;;5120951;27;19930;-76
2022/07/20 07:47:32;;;;;;;;;;;25.60;99.90;;;;;;5104437;27;20273;-76
2022/07/20 07:49:58;;;;;;;;;;;25.60;99.90;;;;;;5120875;27;20018;-76
2022/07/20 07:52:23;;;;;;;;;;;25.60;99.90;;;;;;5138066;27;19974;-76
2022/07/20 07:54:49;;;;;;;;;;;25.60;99.90;;;;;;5120604;27;19931;-76
2022/07/20 07:57:14;;;;;;;;;;;25.60;99.90;;;;;;5137919;27;20305;-76
2022/07/20 07:59:42;;;;;;;;;;;25.60;99.90;;;;;;5137675;27;19924;-76
2022/07/20 08:02:07;;;;;;;;;;;25.60;99.90;;;;;;5120258;27;20455;-76
2022/07/20 08:04:33;;;;;;;;;;;25.80;99.90;;;;;;5137450;27;19927;-76
2022/07/20 08:06:59;;;;;;;;;;;25.80;99.90;;;;;;5120122;27;19927;-76
2022/07/20 08:09:24;;;;;;;;;;;25.90;99.90;;;;;;5103527;27;19930;-76
2022/07/20 08:11:50;;;;;;;;;;;25.90;99.90;;;;;;5120273;27;20363;-77
2022/07/20 08:14:15;;;;;;;;;;;26.00;99.90;;;;;;5103237;27;19930;-76
2022/07/20 08:16:41;;;;;;;;;;;26.00;99.90;;;;;;5137362;27;20018;-77
2022/07/20 08:19:07;;;;;;;;;;;26.10;99.90;;;;;;5137113;27;20451;-77
2022/07/20 08:21:32;;;;;;;;;;;26.10;99.90;;;;;;5120256;27;20031;-76
2022/07/20 08:23:58;;;;;;;;;;;26.20;99.90;;;;;;5120078;27;20363;-76
2022/07/20 08:26:23;;;;;;;;;;;26.20;99.90;;;;;;5136983;27;19963;-76
2022/07/20 08:28:49;;;;;;;;;;;26.20;99.90;;;;;;5137073;27;19923;-76
2022/07/20 08:31:14;;;;;;;;;;;26.20;99.90;;;;;;5120086;27;20034;-76
2022/07/20 08:33:40;;;;;;;;;;;26.20;99.90;;;;;;5136739;27;19930;-77
2022/07/20 08:36:06;;;;;;;;;;;26.30;99.90;;;;;;5103057;27;19934;-76
2022/07/20 08:38:31;;;;;;;;;;;26.40;99.90;;;;;;5136886;27;20352;-76
2022/07/20 08:40:57;;;;;;;;;;;26.50;99.90;;;;;;5136919;27;19923;-76
2022/07/20 08:43:23;;;;;;;;;;;26.60;99.90;;;;;;5120224;27;19970;-76
2022/07/20 08:45:49;;;;;;;;;;;26.70;99.90;;;;;;5119652;27;19923;-77
2022/07/20 08:48:18;;;;;;;;;;;26.80;99.90;;;;;;5120011;27;20327;-76
2022/07/20 08:50:44;;;;;;;;;;;26.80;99.90;;;;;;5136876;27;19923;-77
2022/07/20 08:53:09;;;;;;;;;;;26.70;99.90;;;;;;5119446;27;20359;-76
2022/07/20 08:55:35;;;;;;;;;;;26.60;99.90;;;;;;5120016;27;19972;-77
2022/07/20 08:58:01;;;;;;;;;;;26.50;99.90;;;;;;5119683;27;20297;-77
2022/07/20 09:00:27;;;;;;;;;;;26.40;99.90;;;;;;5136891;27;19923;-77
2022/07/20 09:02:52;;;;;;;;;;;26.30;99.90;;;;;;5119560;27;19983;-77
2022/07/20 09:05:20;;;;;;;;;;;26.30;99.90;;;;;;5136775;27;19988;-79
2022/07/20 09:07:49;;;;;;;;;;;26.30;99.90;;;;;;5136481;27;19923;-79
2022/07/20 09:10:17;;;;;;;;;;;26.30;99.90;;;;;;5136868;27;19927;-79
2022/07/20 09:12:57;;;;;;;;;;;26.20;99.90;;;;;;5136889;27;19923;-79
2022/07/20 09:15:26;;;;;;;;;;;26.10;99.90;;;;;;5119013;27;19937;-79
2022/07/20 09:18:10;;;;;;;;;;;26.00;99.90;;;;;;5136625;27;20386;-79
2022/07/20 09:20:37;;;;;;;;;;;26.00;99.90;;;;;;5136746;27;19930;-79
2022/07/20 09:23:05;;;;;;;;;;;26.00;99.90;;;;;;5119520;27;19931;-79
2022/07/20 09:25:30;;;;;;;;;;;26.00;99.90;;;;;;5136705;27;19923;-80
2022/07/20 09:27:56;;;;;;;;;;;26.10;99.90;;;;;;5119069;27;19923;-79
2022/07/20 09:30:22;;;;;;;;;;;26.20;99.90;;;;;;5119507;27;19972;-79
2022/07/20 09:33:06;;;;;;;;;;;26.20;99.90;;;;;;5120123;27;19923;-87
2022/07/20 09:35:33;;;;;;;;;;;26.20;99.90;;;;;;5123716;27;20005;-79
2022/07/20 09:38:00;;;;;;;;;;;26.20;99.90;;;;;;5140550;27;20286;-78
2022/07/20 09:40:26;;;;;;;;;;;26.30;99.90;;;;;;5123497;27;20009;-79
2022/07/20 09:42:52;;;;;;;;;;;26.30;99.90;;;;;;5123328;27;20001;-79
2022/07/20 09:45:27;;;;;;;;;;;26.50;99.90;;;;;;5123428;27;20034;-79
2022/07/20 09:48:10;;;;;;;;;;;26.60;99.90;;;;;;5140006;27;19923;-79
2022/07/20 09:50:38;;;;;;;;;;;26.70;99.90;;;;;;5123365;27;19930;-79
2022/07/20 09:53:04;;;;;;;;;;;26.80;99.90;;;;;;5122804;27;19967;-79
2022/07/20 09:55:30;;;;;;;;;;;26.80;99.90;;;;;;5140441;27;19930;-79
2022/07/20 09:57:56;;;;;;;;;;;26.90;99.90;;;;;;5123033;27;19923;-78
2022/07/20 10:00:22;;;;;;;;;;;27.00;99.90;;;;;;5123050;27;19986;-77
2022/07/20 10:02:48;;;;;;;;;;;27.10;99.90;;;;;;5123050;27;19927;-79
2022/07/20 10:05:16;;;;;;;;;;;27.00;99.90;;;;;;5140062;27;20461;-78
2022/07/20 10:07:43;;;;;;;;;;;26.90;99.90;;;;;;5122604;27;20306;-78
2022/07/20 10:10:09;;;;;;;;;;;26.70;99.90;;;;;;5122722;27;19923;-78
2022/07/20 10:12:35;;;;;;;;;;;26.60;99.90;;;;;;5140233;27;19945;-78
2022/07/20 10:15:00;;;;;;;;;;;26.50;99.90;;;;;;5122184;27;19970;-78
2022/07/20 10:17:29;;;;;;;;;;;26.60;99.90;;;;;;5122567;27;19923;-78
2022/07/20 10:19:55;;;;;;;;;;;26.60;99.90;;;;;;5139644;27;19923;-82
2022/07/20 10:22:21;;;;;;;;;;;26.80;99.90;;;;;;5139985;27;19930;-78
2022/07/20 10:24:47;;;;;;;;;;;26.90;99.90;;;;;;5139764;27;19923;-78
2022/07/20 10:27:16;;;;;;;;;;;26.70;99.90;;;;;;5139193;27;19923;-78
2022/07/20 10:29:49;;;;;;;;;;;26.70;99.90;;;;;;5139885;27;19927;-78
2022/07/20 10:32:23;;;;;;;;;;;26.80;99.90;;;;;;5139430;27;19985;-78
2022/07/20 10:34:54;;;;;;;;;;;26.90;99.90;;;;;;5139579;27;19929;-79
2022/07/20 10:37:25;;;;;;;;;;;27.00;99.90;;;;;;5122259;27;19924;-78
2022/07/20 10:39:52;;;;;;;;;;;27.00;99.90;;;;;;5139393;27;19923;-78
2022/07/20 10:42:31;;;;;;;;;;;27.10;99.90;;;;;;5122103;27;19933;-78
2022/07/20 10:45:15;;;;;;;;;;;27.10;99.90;;;;;;5122193;27;20026;-78
2022/07/20 10:47:42;;;;;;;;;;;27.10;99.90;;;;;;5121822;27;19924;-78
2022/07/20 10:50:09;;;;;;;;;;;27.10;99.90;;;;;;5139019;27;19979;-78
2022/07/20 10:52:35;;;;;;;;;;;27.20;99.90;;;;;;5122184;27;20282;-78
2022/07/20 10:55:01;;;;;;;;;;;27.20;99.90;;;;;;5138937;27;19926;-79
2022/07/20 10:57:27;;;;;;;;;;;27.20;99.90;;;;;;5121710;27;19929;-78
2022/07/20 10:59:59;;;;;;;;;;;27.30;99.90;;;;;;5121865;27;20014;-78
2022/07/20 11:02:25;;;;;;;;;;;27.30;99.90;;;;;;5121663;27;19922;-78
2022/07/20 11:04:50;;;;;;;;;;;27.40;99.90;;;;;;5121676;27;19923;-79
2022/07/20 11:07:29;;;;;;;;;;;27.50;99.90;;;;;;5121339;27;20320;-78
2022/07/20 11:09:54;;;;;;;;;;;27.60;99.90;;;;;;5121803;27;20013;-78
2022/07/20 11:12:27;;;;;;;;;;;27.70;99.90;;;;;;5121519;27;20395;-78
2022/07/20 11:14:53;;;;;;;;;;;27.90;99.90;;;;;;5121189;27;19957;-78
2022/07/20 11:17:19;;;;;;;;;;;28.00;99.70;;;;;;5121507;27;19959;-78
2022/07/20 11:19:45;;;;;;;;;;;28.10;98.70;;;;;;5138774;27;20382;-78
2022/07/20 11:22:10;;;;;;;;;;;28.20;98.70;;;;;;5121332;27;19930;-78
2022/07/20 11:24:36;;;;;;;;;;;28.40;98.20;;;;;;5138603;27;20041;-78
2022/07/20 11:27:14;;;;;;;;;;;28.30;98.70;;;;;;5138324;27;20335;-78
2022/07/20 11:29:47;;;;;;;;;;;28.60;98.90;;;;;;5121367;27;19923;-77
2022/07/20 11:32:12;;;;;;;;;;;28.60;97.70;;;;;;5120858;27;19927;-78
2022/07/20 11:34:45;;;;;;;;;;;28.70;97.80;;;;;;5138338;27;19930;-78
2022/07/20 11:37:13;;;;;;;;;;;28.80;97.80;;;;;;5120971;27;19923;-78
2022/07/20 11:39:38;;;;;;;;;;;29.10;97.80;;;;;;5138119;27;19923;-84
2022/07/20 11:42:14;;;;;;;;;;;29.60;97.60;;;;;;5120969;27;20022;-78
2022/07/20 11:44:40;;;;;;;;;;;29.80;98.10;;;;;;5121018;27;19923;-78
2022/07/20 11:47:06;;;;;;;;;;;30.30;97.90;;;;;;5120624;27;20363;-79
2022/07/20 11:49:31;;;;;;;;;;;30.70;96.90;;;;;;5137876;27;19976;-78
2022/07/20 11:51:59;;;;;;;;;;;31.00;96.20;;;;;;5137774;27;19930;-79
2022/07/20 11:54:28;;;;;;;;;;;31.20;95.40;;;;;;5137855;27;19923;-79
2022/07/20 11:56:54;;;;;;;;;;;31.40;94.80;;;;;;5137473;27;19923;-79
2022/07/20 11:59:20;;;;;;;;;;;31.40;93.30;;;;;;5120404;27;20026;-78
2022/07/20 12:01:47;;;;;;;;;;;31.20;92.90;;;;;;5120892;27;19923;-78
2022/07/20 12:04:14;;;;;;;;;;;31.30;93.70;;;;;;5120467;27;19923;-79
2022/07/20 12:06:40;;;;;;;;;;;31.20;93.80;;;;;;5120450;27;19923;-79
2022/07/20 12:09:11;;;;;;;;;;;31.30;93.60;;;;;;5137784;27;19934;-79
2022/07/20 12:11:52;;;;;;;;;;;31.40;93.40;;;;;;5138108;27;19931;-79
2022/07/20 12:14:27;;;;;;;;;;;31.20;93.50;;;;;;5137176;27;19923;-79
2022/07/20 12:16:53;;;;;;;;;;;31.30;92.00;;;;;;5137518;27;19938;-79
2022/07/20 12:19:19;;;;;;;;;;;31.30;92.10;;;;;;5137373;27;20358;-79
2022/07/20 12:21:44;;;;;;;;;;;31.50;91.90;;;;;;5137592;27;20014;-79
2022/07/20 12:24:11;;;;;;;;;;;31.40;92.40;;;;;;5120363;27;20371;-79
2022/07/20 12:26:36;;;;;;;;;;;31.30;92.10;;;;;;5136910;27;20397;-79
2022/07/20 12:29:17;;;;;;;;;;;31.70;93.10;;;;;;5120320;27;19927;-79
2022/07/20 12:31:43;;;;;;;;;;;31.70;91.80;;;;;;5137041;27;20371;-79
2022/07/20 12:34:10;;;;;;;;;;;32.00;92.00;;;;;;5137281;27;19923;-78
2022/07/20 12:36:37;;;;;;;;;;;32.10;91.30;;;;;;5119966;27;19923;-79
2022/07/20 12:39:05;;;;;;;;;;;32.00;90.70;;;;;;5120016;27;19934;-79
2022/07/20 12:41:30;;;;;;;;;;;32.20;90.90;;;;;;5119707;27;20344;-79
2022/07/20 12:43:56;;;;;;;;;;;32.10;90.60;;;;;;5120028;27;19930;-79
2022/07/20 12:46:21;;;;;;;;;;;32.00;90.20;;;;;;5136769;27;19927;-79
2022/07/20 12:48:48;;;;;;;;;;;32.00;90.50;;;;;;5137144;27;19923;-79
2022/07/20 12:51:14;;;;;;;;;;;31.90;90.70;;;;;;5137113;27;19923;-78
2022/07/20 12:53:40;;;;;;;;;;;32.00;90.80;;;;;;5136915;27;19974;-79
2022/07/20 12:56:07;;;;;;;;;;;32.00;90.60;;;;;;5137027;27;19923;-79
2022/07/20 12:58:33;;;;;;;;;;;32.10;90.80;;;;;;5119778;27;19931;-79
2022/07/20 13:00:58;;;;;;;;;;;32.10;90.60;;;;;;5136930;27;20385;-79
2022/07/20 13:03:24;;;;;;;;;;;31.90;90.80;;;;;;5119755;27;19929;-80
2022/07/20 13:05:50;;;;;;;;;;;32.00;90.80;;;;;;5136937;27;19946;-79
2022/07/20 13:08:16;;;;;;;;;;;32.20;90.40;;;;;;5138754;27;19923;-79
2022/07/20 13:10:41;;;;;;;;;;;32.40;89.00;;;;;;5141050;27;19938;-79
2022/07/20 13:13:07;;;;;;;;;;;32.60;89.20;;;;;;5123674;27;19930;-79
2022/07/20 13:15:32;;;;;;;;;;;32.70;89.00;;;;;;5137310;27;19980;-79
2022/07/20 13:17:58;;;;;;;;;;;33.10;90.10;;;;;;5137701;27;20363;-79
2022/07/20 13:20:24;;;;;;;;;;;32.80;88.90;;;;;;5137326;27;19930;-80
2022/07/20 13:22:50;;;;;;;;;;;32.70;87.60;;;;;;5137523;27;20252;-80
2022/07/20 13:25:15;;;;;;;;;;;32.80;89.20;;;;;;5137518;27;19924;-79
2022/07/20 13:27:42;;;;;;;;;;;32.50;89.00;;;;;;5119843;27;19946;-79
2022/07/20 13:30:08;;;;;;;;;;;32.20;88.50;;;;;;5120326;27;19928;-79
2022/07/20 13:32:33;;;;;;;;;;;32.60;87.80;;;;;;5137217;27;19928;-79
2022/07/20 13:34:59;;;;;;;;;;;32.90;87.80;;;;;;5120193;27;19930;-79
2022/07/20 13:37:25;;;;;;;;;;;33.20;86.10;;;;;;5136769;27;19923;-80
2022/07/20 13:39:51;;;;;;;;;;;33.00;85.10;;;;;;5120102;27;20264;-80
2022/07/20 13:42:16;;;;;;;;;;;33.30;84.00;;;;;;5120041;27;19923;-79
2022/07/20 13:44:42;;;;;;;;;;;33.10;83.90;;;;;;5119425;27;20279;-80
2022/07/20 13:47:08;;;;;;;;;;;33.30;84.40;;;;;;5119749;27;19923;-79
2022/07/20 13:49:33;;;;;;;;;;;33.20;83.90;;;;;;5119758;27;19934;-80
2022/07/20 13:51:59;;;;;;;;;;;32.80;85.70;;;;;;5119789;27;19923;-79
2022/07/20 13:54:25;;;;;;;;;;;32.90;85.30;;;;;;5136915;27;20013;-79
2022/07/20 13:56:51;;;;;;;;;;;33.00;84.80;;;;;;5119717;27;20003;-80
2022/07/20 13:59:16;;;;;;;;;;;32.70;85.90;;;;;;5119708;27;20252;-79
2022/07/20 14:01:42;;;;;;;;;;;32.80;84.10;;;;;;5136661;27;19927;-79
2022/07/20 14:04:11;;;;;;;;;;;33.40;83.20;;;;;;5119550;27;20371;-79
2022/07/20 14:06:38;;;;;;;;;;;33.60;80.70;;;;;;5136322;27;19963;-79
2022/07/20 14:09:03;;;;;;;;;;;33.40;80.10;;;;;;5119407;27;19923;-79
2022/07/20 14:11:29;;;;;;;;;;;33.70;80.70;;;;;;5136389;27;20018;-82
2022/07/20 14:13:54;;;;;;;;;;;33.80;80.50;;;;;;5138427;27;19923;-79